createdAt,value
2023-02-12T00:01:39.848Z,-1.65
2023-02-12T00:04:08.127Z,-1.67
2023-02-12T00:06:36.105Z,-1.62
2023-02-12T00:09:04.188Z,-1.53
2023-02-12T00:11:32.455Z,-1.35
2023-02-12T00:14:05.357Z,-1.21
2023-02-12T00:16:33.695Z,-1.29
2023-02-12T00:19:01.569Z,-1.26
2023-02-12T00:21:29.568Z,-1.31
2023-02-12T00:23:58.507Z,-1.38
2023-02-12T00:26:26.380Z,-1.50
2023-02-12T00:28:57.210Z,-1.50
2023-02-12T00:31:29.019Z,-1.51
2023-02-12T00:33:59.544Z,-1.51
2023-02-12T00:36:30.629Z,-1.48
2023-02-12T00:38:59.017Z,-1.50
2023-02-12T00:41:27.503Z,-1.49
2023-02-12T00:43:55.828Z,-1.49
2023-02-12T00:46:23.675Z,-1.49
2023-02-12T00:48:52.458Z,-1.50
2023-02-12T00:51:23.679Z,-1.50
2023-02-12T00:53:51.870Z,-1.50
2023-02-12T00:56:19.970Z,-1.50
2023-02-12T00:58:49.700Z,-1.49
2023-02-12T01:01:18.868Z,-1.50
2023-02-12T01:03:46.808Z,-1.50
2023-02-12T01:06:14.771Z,-1.50
2023-02-12T01:08:42.987Z,-1.47
2023-02-12T01:11:14.753Z,-1.44
2023-02-12T01:13:43.632Z,-1.45
2023-02-12T01:16:24.097Z,-1.52
2023-02-12T01:18:55.861Z,-1.52
2023-02-12T01:21:27.662Z,-1.51
2023-02-12T01:23:56.108Z,-1.51
2023-02-12T01:26:25.605Z,-1.49
2023-02-12T01:28:56.714Z,-1.07
2023-02-12T01:31:27.913Z,-1.43
2023-02-12T01:33:58.672Z,-1.60
2023-02-12T01:36:31.376Z,-1.68
2023-02-12T01:38:59.509Z,-1.67
2023-02-12T01:41:30.869Z,-1.62
2023-02-12T01:44:29.300Z,-1.62
2023-02-12T01:47:00.296Z,-1.66
2023-02-12T01:49:37.042Z,-1.63
2023-02-12T01:52:16.113Z,-1.69
2023-02-12T01:54:44.574Z,-2.02
2023-02-12T01:57:17.569Z,-2.10
2023-02-12T01:59:52.925Z,-2.10
2023-02-12T02:02:21.487Z,-2.22
2023-02-12T02:04:58.164Z,-2.28
2023-02-12T02:07:26.261Z,-2.30
2023-02-12T02:09:55.514Z,-2.36
2023-02-12T02:12:42.916Z,-2.44
2023-02-12T02:15:12.174Z,-2.46
2023-02-12T02:17:58.643Z,-2.43
2023-02-12T02:20:47.773Z,-2.55
2023-02-12T02:23:52.786Z,-2.59
2023-02-12T02:26:39.591Z,-2.63
2023-02-12T02:29:50.990Z,-2.68
2023-02-12T02:32:27.493Z,-2.87
2023-02-12T02:35:20.642Z,-2.82
2023-02-12T02:38:08.314Z,-3.02
2023-02-12T02:40:54.765Z,-2.96
2023-02-12T02:43:44.751Z,-3.21
2023-02-12T02:46:20.737Z,-3.11
2023-02-12T02:48:53.976Z,-3.18
2023-02-12T02:51:28.465Z,-3.20
2023-02-12T02:54:12.455Z,-3.27
2023-02-12T02:56:44.418Z,-3.38
2023-02-12T02:59:22.920Z,-3.45
2023-02-12T03:02:05.118Z,-3.56
2023-02-12T03:05:00.623Z,-3.46
2023-02-12T03:07:41.881Z,-3.58
2023-02-12T03:10:22.138Z,-3.64
2023-02-12T03:13:06.842Z,-3.67
2023-02-12T03:15:42.326Z,-3.67
2023-02-12T03:18:15.494Z,-3.66
2023-02-12T03:20:53.407Z,-3.77
2023-02-12T03:23:40.268Z,-3.89
2023-02-12T03:26:26.094Z,-3.89
2023-02-12T03:28:54.080Z,-3.98
2023-02-12T03:31:51.636Z,-3.92
2023-02-12T03:34:31.563Z,-3.96
2023-02-12T03:37:24.133Z,-4.17
2023-02-12T03:40:20.108Z,-3.99
2023-02-12T03:43:23.072Z,-4.02
2023-02-12T03:46:13.511Z,-4.06
2023-02-12T03:48:55.675Z,-4.05
2023-02-12T03:51:31.036Z,-4.13
2023-02-12T03:53:59.468Z,-4.15
2023-02-12T03:56:58.366Z,-4.13
2023-02-12T03:59:26.906Z,-4.13
2023-02-12T04:01:56.577Z,-4.21
2023-02-12T04:04:26.975Z,-4.23
2023-02-12T04:06:55.368Z,-4.29
2023-02-12T04:09:26.260Z,-4.36
2023-02-12T04:12:00.768Z,-4.32
2023-02-12T04:14:55.892Z,-4.35
2023-02-12T04:17:52.110Z,-4.36
2023-02-12T04:20:58.652Z,-4.39
2023-02-12T04:23:52.467Z,-4.41
2023-02-12T04:26:46.082Z,-4.43
2023-02-12T04:29:36.108Z,-4.43
2023-02-12T04:32:22.286Z,-4.44
2023-02-12T04:35:02.163Z,-4.44
2023-02-12T04:37:39.066Z,-4.69
2023-02-12T04:40:11.800Z,-4.54
2023-02-12T04:42:48.702Z,-4.52
2023-02-12T04:45:24.366Z,-4.51
2023-02-12T04:47:52.354Z,-4.60
2023-02-12T04:50:20.629Z,-4.53
2023-02-12T04:52:48.776Z,-4.52
2023-02-12T04:55:16.869Z,-4.45
2023-02-12T04:57:45.071Z,-4.55
2023-02-12T05:00:15.484Z,-4.51
2023-02-12T05:02:46.076Z,-4.55
2023-02-12T05:05:17.652Z,-4.47
2023-02-12T05:07:45.518Z,-4.48
2023-02-12T05:10:13.359Z,-4.53
2023-02-12T05:12:41.631Z,-4.51
2023-02-12T05:15:09.923Z,-4.50
2023-02-12T05:17:38.496Z,-4.51
2023-02-12T05:20:11.134Z,-4.49
2023-02-12T05:22:42.200Z,-4.46
2023-02-12T05:25:10.603Z,-4.47
2023-02-12T05:27:39.654Z,-4.41
2023-02-12T05:30:09.748Z,-4.42
2023-02-12T05:32:38.068Z,-4.37
2023-02-12T05:35:06.198Z,-4.39
2023-02-12T05:37:37.389Z,-4.31
2023-02-12T05:40:07.132Z,-4.39
2023-02-12T05:42:38.088Z,-4.30
2023-02-12T05:45:06.867Z,-4.37
2023-02-12T05:47:34.737Z,-4.51
2023-02-12T05:50:02.700Z,-4.42
2023-02-12T05:52:30.965Z,-4.41
2023-02-12T05:55:01.912Z,-4.39
2023-02-12T05:57:30.696Z,-4.39
2023-02-12T05:59:58.563Z,-4.43
2023-02-12T06:02:26.617Z,-4.33
2023-02-12T06:04:54.859Z,-4.38
2023-02-12T06:07:23.392Z,-4.48
2023-02-12T06:09:51.280Z,-4.33
2023-02-12T06:12:19.501Z,-4.43
2023-02-12T06:14:50.107Z,-4.43
2023-02-12T06:17:18.048Z,-4.38
2023-02-12T06:19:46.272Z,-4.54
2023-02-12T06:22:14.117Z,-4.59
2023-02-12T06:24:41.868Z,-4.56
2023-02-12T06:27:10.071Z,-4.53
2023-02-12T06:29:37.856Z,-4.53
2023-02-12T06:32:08.698Z,-4.43
2023-02-12T06:34:36.823Z,-4.44
2023-02-12T06:37:04.541Z,-4.52
2023-02-12T06:39:32.263Z,-4.53
2023-02-12T06:42:00.464Z,-4.53
2023-02-12T06:44:28.149Z,-4.55
2023-02-12T06:46:56.088Z,-4.56
2023-02-12T06:49:24.441Z,-4.61
2023-02-12T06:51:52.092Z,-4.67
2023-02-12T06:54:19.918Z,-4.70
2023-02-12T06:56:48.293Z,-4.66
2023-02-12T06:59:17.385Z,-4.74
2023-02-12T07:01:45.270Z,-4.62
2023-02-12T07:04:14.277Z,-4.71
2023-02-12T07:06:42.166Z,-4.73
2023-02-12T07:09:10.116Z,-4.80
2023-02-12T07:11:38.911Z,-4.73
2023-02-12T07:14:07.762Z,-4.53
2023-02-12T07:16:35.630Z,-4.45
2023-02-12T07:19:03.960Z,-4.34
2023-02-12T07:21:32.414Z,-4.36
2023-02-12T07:24:00.395Z,-4.30
2023-02-12T07:26:28.584Z,-4.44
2023-02-12T07:28:58.858Z,-4.09
2023-02-12T07:31:26.991Z,-4.23
2023-02-12T07:33:57.445Z,-4.06
2023-02-12T07:36:28.467Z,-4.07
2023-02-12T07:38:57.889Z,-4.32
2023-02-12T07:41:31.624Z,-4.41
2023-02-12T07:44:07.657Z,-4.51
2023-02-12T07:46:38.594Z,-4.42
2023-02-12T07:49:11.086Z,-4.51
2023-02-12T07:51:39.084Z,-4.48
2023-02-12T07:54:07.435Z,-4.46
2023-02-12T07:56:37.925Z,-4.40
2023-02-12T07:59:15.043Z,-4.34
2023-02-12T08:01:48.851Z,-4.35
2023-02-12T08:04:19.550Z,-4.21
2023-02-12T08:06:50.211Z,-4.32
2023-02-12T08:09:25.124Z,-4.37
2023-02-12T08:11:53.316Z,-4.43
2023-02-12T08:14:22.861Z,-4.23
2023-02-12T08:16:51.622Z,-4.42
2023-02-12T08:19:24.056Z,-4.58
2023-02-12T08:21:56.279Z,-4.42
2023-02-12T08:24:24.957Z,-4.53
2023-02-12T08:26:53.229Z,-4.44
2023-02-12T08:29:27.075Z,-4.27
2023-02-12T08:32:01.302Z,-4.43
2023-02-12T08:34:32.009Z,-4.43
2023-02-12T08:39:46.103Z,-4.41
2023-02-12T08:42:14.207Z,-4.50
2023-02-12T08:44:43.240Z,-4.49
2023-02-12T08:47:11.261Z,-4.28
2023-02-12T08:49:39.380Z,-4.35
2023-02-12T08:52:07.080Z,-4.14
2023-02-12T08:54:34.788Z,-4.20
2023-02-12T08:57:04.201Z,-4.21
2023-02-12T08:59:32.688Z,-4.34
2023-02-12T09:02:01.253Z,-4.32
2023-02-12T09:04:30.309Z,-4.24
2023-02-12T09:06:58.591Z,-4.20
2023-02-12T09:09:26.323Z,-4.03
2023-02-12T09:11:54.535Z,-4.23
2023-02-12T09:14:25.423Z,-4.24
2023-02-12T09:16:54.527Z,-4.30
2023-02-12T09:19:23.277Z,-4.10
2023-02-12T09:21:56.409Z,-4.07
2023-02-12T09:24:28.151Z,-4.28
2023-02-12T09:26:56.885Z,-4.37
2023-02-12T09:29:25.206Z,-4.53
2023-02-12T09:31:53.216Z,-4.47
2023-02-12T09:34:21.136Z,-4.44
2023-02-12T09:36:49.346Z,-4.30
2023-02-12T09:39:17.211Z,-4.33
2023-02-12T09:41:58.182Z,-4.00
2023-02-12T09:44:50.209Z,-3.81
2023-02-12T09:47:31.411Z,-4.14
2023-02-12T09:50:27.765Z,-3.79
2023-02-12T09:52:58.294Z,-4.00
2023-02-12T09:55:31.042Z,-3.57
2023-02-12T09:58:02.592Z,-3.96
2023-02-12T10:00:32.111Z,-4.19
2023-02-12T10:03:14.915Z,-4.27
2023-02-12T10:05:54.202Z,-4.10
2023-02-12T10:08:47.304Z,-4.03
2023-02-12T10:11:33.573Z,-3.83
2023-02-12T10:14:04.676Z,-3.91
2023-02-12T10:16:59.879Z,-4.01
2023-02-12T10:20:01.872Z,-4.03
2023-02-12T10:22:30.917Z,-4.24
2023-02-12T10:25:30.324Z,-4.22
2023-02-12T10:28:05.434Z,-4.34
2023-02-12T10:31:00.336Z,-4.21
2023-02-12T10:33:49.562Z,-4.34
2023-02-12T10:36:24.089Z,-4.17
2023-02-12T10:39:13.715Z,-4.27
2023-02-12T10:41:49.925Z,-4.41
2023-02-12T10:44:18.181Z,-4.06
2023-02-12T10:46:46.494Z,-3.92
2023-02-12T10:49:18.396Z,-3.99
2023-02-12T10:52:06.470Z,-4.03
2023-02-12T10:54:49.413Z,-3.99
2023-02-12T10:57:27.510Z,-4.36
2023-02-12T10:59:57.727Z,-4.49
2023-02-12T11:02:32.027Z,-4.32
2023-02-12T11:05:16.090Z,-4.37
2023-02-12T11:07:50.346Z,-4.52
2023-02-12T11:10:27.131Z,-4.71
2023-02-12T11:12:56.049Z,-4.49
2023-02-12T11:15:26.412Z,-4.44
2023-02-12T11:18:06.229Z,-4.34
2023-02-12T11:21:13.270Z,-4.31
2023-02-12T11:23:45.530Z,-4.32
2023-02-12T11:26:19.940Z,-4.38
2023-02-12T11:29:22.097Z,-3.98
2023-02-12T11:32:05.282Z,-4.03
2023-02-12T11:34:33.300Z,-4.19
2023-02-12T11:37:02.548Z,-4.12
2023-02-12T11:39:37.144Z,-4.10
2023-02-12T11:42:26.880Z,-4.03
2023-02-12T11:45:00.555Z,-4.21
2023-02-12T11:47:32.410Z,-4.42
2023-02-12T11:50:21.309Z,-4.47
2023-02-12T11:52:56.518Z,-4.71
2023-02-12T11:55:34.158Z,-4.34
2023-02-12T11:58:15.331Z,-4.42
2023-02-12T12:00:53.185Z,-4.08
2023-02-12T12:03:33.294Z,-4.60
2023-02-12T12:06:24.973Z,-4.54
2023-02-12T12:09:05.633Z,-4.53
2023-02-12T12:11:53.034Z,-4.52
2023-02-12T12:14:30.613Z,-4.39
2023-02-12T12:17:31.472Z,-4.44
2023-02-12T12:20:07.480Z,-4.38
2023-02-12T12:22:41.373Z,-4.46
2023-02-12T12:25:19.773Z,-4.51
2023-02-12T12:28:08.445Z,-4.62
2023-02-12T12:30:55.295Z,-4.55
2023-02-12T12:33:41.843Z,-4.58
2023-02-12T12:36:54.430Z,-4.57
2023-02-12T12:39:59.623Z,-4.58
2023-02-12T12:43:03.398Z,-4.36
2023-02-12T12:45:52.017Z,-3.83
2023-02-12T12:48:51.027Z,-3.74
2023-02-12T12:51:41.608Z,-4.08
2023-02-12T12:54:48.126Z,-4.33
2023-02-12T12:57:49.114Z,-3.94
2023-02-12T13:00:40.349Z,-3.81
2023-02-12T13:03:20.862Z,-3.51
2023-02-12T13:06:08.620Z,-3.40
2023-02-12T13:09:07.803Z,-3.31
2023-02-12T13:12:13.049Z,-2.91
2023-02-12T13:15:20.058Z,-3.15
2023-02-12T13:18:25.767Z,-3.76
2023-02-12T13:21:29.889Z,-3.33
2023-02-12T13:24:06.046Z,-3.24
2023-02-12T13:26:42.261Z,-3.99
2023-02-12T13:29:37.562Z,-3.62
2023-02-12T13:32:17.239Z,-3.96
2023-02-12T13:34:46.453Z,-4.12
2023-02-12T13:37:21.346Z,-4.60
2023-02-12T13:39:50.705Z,-4.94
2023-02-12T13:42:48.278Z,-4.89
2023-02-12T13:45:36.022Z,-4.99
2023-02-12T13:48:34.568Z,-5.33
2023-02-12T13:51:25.077Z,-5.57
2023-02-12T13:54:19.754Z,-5.72
2023-02-12T13:56:51.525Z,-5.98
2023-02-12T13:59:31.940Z,-6.17
2023-02-12T14:02:06.325Z,-6.22
2023-02-12T14:04:42.065Z,-6.25
2023-02-12T14:07:17.218Z,-6.39
2023-02-12T14:09:49.869Z,-6.37
2023-02-12T14:12:27.106Z,-6.44
2023-02-12T14:15:04.525Z,-6.65
2023-02-12T14:17:32.397Z,-6.66
2023-02-12T14:20:29.766Z,-6.71
2023-02-12T14:23:27.395Z,-6.72
2023-02-12T14:26:02.807Z,-6.81
2023-02-12T14:28:46.939Z,-6.83
2023-02-12T14:31:19.630Z,-6.73
2023-02-12T14:34:11.742Z,-6.81
2023-02-12T14:36:45.853Z,-6.90
2023-02-12T14:39:19.848Z,-6.97
2023-02-12T14:41:57.600Z,-6.93
2023-02-12T14:44:27.634Z,-7.03
2023-02-12T14:46:58.260Z,-7.16
2023-02-12T14:49:49.696Z,-7.12
2023-02-12T14:52:23.058Z,-7.21
2023-02-12T14:54:55.745Z,-7.18
2023-02-12T14:57:35.450Z,-7.22
2023-02-12T15:00:25.938Z,-7.21
2023-02-12T15:03:13.120Z,-7.32
2023-02-12T15:05:56.467Z,-7.38
2023-02-12T15:08:49.465Z,-7.53
2023-02-12T15:11:33.892Z,-7.63
2023-02-12T15:14:05.570Z,-7.51
2023-02-12T15:17:07.762Z,-7.58
2023-02-12T15:19:48.912Z,-7.71
2023-02-12T15:22:23.860Z,-7.89
2023-02-12T15:24:52.400Z,-7.85
2023-02-12T15:27:22.352Z,-7.76
2023-02-12T15:29:53.189Z,-7.71
2023-02-12T15:32:27.912Z,-7.70
2023-02-12T15:34:56.571Z,-7.73
2023-02-12T15:37:30.781Z,-7.85
2023-02-12T15:40:02.127Z,-7.75
2023-02-12T15:42:43.041Z,-7.73
2023-02-12T15:45:10.828Z,-7.88
2023-02-12T15:47:39.084Z,-7.83
2023-02-12T15:50:07.359Z,-7.77
2023-02-12T15:52:39.316Z,-7.84
2023-02-12T15:55:16.685Z,-7.91
2023-02-12T15:57:50.566Z,-7.96
2023-02-12T16:00:35.968Z,-8.00
2023-02-12T16:03:04.500Z,-8.00
2023-02-12T16:05:35.390Z,-8.11
2023-02-12T16:08:03.911Z,-8.18
2023-02-12T16:10:32.353Z,-8.10
2023-02-12T16:13:00.498Z,-8.18
2023-02-12T16:15:34.844Z,-8.10
2023-02-12T16:18:06.545Z,-8.25
2023-02-12T16:20:35.331Z,-8.11
2023-02-12T16:23:06.832Z,-8.11
2023-02-12T16:25:35.565Z,-8.00
2023-02-12T16:28:15.138Z,-8.10
2023-02-12T16:30:44.811Z,-8.06
2023-02-12T16:33:34.177Z,-8.19
2023-02-12T16:36:05.689Z,-8.29
2023-02-12T16:38:39.724Z,-8.29
2023-02-12T16:41:57.149Z,-8.33
2023-02-12T16:44:31.757Z,-8.18
2023-02-12T16:47:01.737Z,-8.37
2023-02-12T16:49:30.002Z,-8.52
2023-02-12T16:52:23.244Z,-8.53
2023-02-12T16:54:51.687Z,-8.49
2023-02-12T16:57:19.506Z,-8.50
2023-02-12T16:59:47.416Z,-8.47
2023-02-12T17:02:16.450Z,-8.50
2023-02-12T17:04:44.451Z,-8.49
2023-02-12T17:07:28.619Z,-8.76
2023-02-12T17:09:57.790Z,-8.62
2023-02-12T17:12:26.131Z,-8.75
2023-02-12T17:14:55.250Z,-8.70
2023-02-12T17:17:23.523Z,-8.66
2023-02-12T17:19:54.757Z,-8.93
2023-02-12T17:22:28.204Z,-8.90
2023-02-12T17:24:59.324Z,-8.88
2023-02-12T17:27:27.531Z,-8.75
2023-02-12T17:29:58.686Z,-8.75
2023-02-12T17:32:26.666Z,-8.85
2023-02-12T17:34:55.200Z,-8.96
2023-02-12T17:37:25.820Z,-9.04
2023-02-12T17:39:55.501Z,-9.04
2023-02-12T17:42:23.384Z,-9.15
2023-02-12T17:44:51.455Z,-9.18
2023-02-12T17:47:20.197Z,-9.24
2023-02-12T17:49:48.369Z,-9.33
2023-02-12T17:52:16.653Z,-9.24
2023-02-12T17:54:46.238Z,-9.35
2023-02-12T17:57:15.511Z,-9.23
2023-02-12T17:59:43.925Z,-9.29
2023-02-12T18:02:15.329Z,-9.39
2023-02-12T18:04:43.871Z,-9.53
2023-02-12T18:07:12.109Z,-9.40
2023-02-12T18:09:40.479Z,-9.46
2023-02-12T18:12:09.305Z,-9.23
2023-02-12T18:14:37.548Z,-9.30
2023-02-12T18:17:08.399Z,-9.59
2023-02-12T18:19:37.420Z,-9.35
2023-02-12T18:22:05.582Z,-8.95
2023-02-12T18:24:35.284Z,-9.39
2023-02-12T18:27:03.977Z,-9.32
2023-02-12T18:29:32.220Z,-9.64
2023-02-12T18:32:00.460Z,-9.56
2023-02-12T18:34:29.432Z,-9.80
2023-02-12T18:37:01.110Z,-9.76
2023-02-12T18:39:30.530Z,-9.06
2023-02-12T18:41:58.897Z,-9.71
2023-02-12T18:44:27.279Z,-10.05
2023-02-12T18:46:57.751Z,-9.50
2023-02-12T18:49:27.298Z,-9.40
2023-02-12T18:51:57.062Z,-9.38
2023-02-12T18:54:25.474Z,-9.35
2023-02-12T18:56:54.238Z,-9.72
2023-02-12T18:59:25.687Z,-9.20
2023-02-12T19:01:56.280Z,-9.23
2023-02-12T19:04:25.599Z,-9.10
2023-02-12T19:06:54.650Z,-8.62
2023-02-12T19:09:25.617Z,-9.25
2023-02-12T19:11:57.419Z,-9.30
2023-02-12T19:14:27.369Z,-9.18
2023-02-12T19:16:55.826Z,-9.32
2023-02-12T19:19:23.853Z,-9.55
2023-02-12T19:21:51.810Z,-9.46
2023-02-12T19:24:26.222Z,-9.35
2023-02-12T19:26:56.759Z,-9.43
2023-02-12T19:29:25.303Z,-9.16
2023-02-12T19:31:53.369Z,-8.46
2023-02-12T19:34:23.493Z,-7.87
2023-02-12T19:36:52.442Z,-9.00
2023-02-12T19:39:24.935Z,-8.14
2023-02-12T19:41:53.060Z,-7.48
2023-02-12T19:44:25.523Z,-7.92
2023-02-12T19:46:53.961Z,-8.64
2023-02-12T19:49:24.170Z,-7.96
2023-02-12T19:51:52.097Z,-7.89
2023-02-12T19:54:22.266Z,-9.17
2023-02-12T19:56:51.075Z,-9.32
2023-02-12T19:59:20.633Z,-8.97
2023-02-12T20:01:49.631Z,-9.79
2023-02-12T20:04:20.582Z,-9.04
2023-02-12T20:06:52.912Z,-9.50
2023-02-12T20:09:21.899Z,-9.32
2023-02-12T20:11:49.678Z,-8.07
2023-02-12T20:14:18.059Z,-7.67
2023-02-12T20:16:47.825Z,-7.13
2023-02-12T20:19:24.878Z,-7.10
2023-02-12T20:21:56.035Z,-6.43
2023-02-12T20:24:30.266Z,-6.15
2023-02-12T20:27:00.541Z,-6.18
2023-02-12T20:29:29.114Z,-5.99
2023-02-12T20:31:57.197Z,-6.00
2023-02-12T20:34:25.603Z,-6.16
2023-02-12T20:36:54.345Z,-6.12
2023-02-12T20:39:22.327Z,-5.98
2023-02-12T20:41:51.015Z,-5.90
2023-02-12T20:44:21.691Z,-5.87
2023-02-12T20:46:55.628Z,-5.93
2023-02-12T20:49:26.240Z,-5.92
2023-02-12T20:51:54.437Z,-5.99
2023-02-12T20:54:22.664Z,-6.11
2023-02-12T20:56:51.195Z,-6.00
2023-02-12T20:59:20.636Z,-6.10
2023-02-12T21:01:49.457Z,-6.32
2023-02-12T21:04:20.024Z,-6.15
2023-02-12T21:06:48.894Z,-6.09
2023-02-12T21:09:19.034Z,-6.06
2023-02-12T21:11:47.214Z,-6.01
2023-02-12T21:14:24.487Z,-6.00
2023-02-12T21:16:56.767Z,-6.00
2023-02-12T21:19:25.828Z,-6.08
2023-02-12T21:21:54.550Z,-6.05
2023-02-12T21:24:25.362Z,-6.07
2023-02-12T21:26:54.871Z,-6.10
2023-02-12T21:29:24.030Z,-6.21
2023-02-12T21:31:52.093Z,-6.23
2023-02-12T21:34:22.916Z,-6.26
2023-02-12T21:36:57.059Z,-6.26
2023-02-12T21:39:28.763Z,-6.32
2023-02-12T21:42:03.276Z,-6.37
2023-02-12T21:44:33.172Z,-6.42
2023-02-12T21:47:01.951Z,-6.50
2023-02-12T21:49:29.991Z,-6.43
2023-02-12T21:52:02.705Z,-6.48
2023-02-12T21:54:31.605Z,-6.40
2023-02-12T21:57:00.613Z,-6.40
2023-02-12T21:59:32.608Z,-6.63
2023-02-12T22:02:02.141Z,-6.78
2023-02-12T22:04:30.508Z,-6.84
2023-02-12T22:06:59.932Z,-6.71
2023-02-12T22:09:30.847Z,-7.38
2023-02-12T22:11:58.926Z,-8.13
2023-02-12T22:14:26.957Z,-7.35
2023-02-12T22:16:54.658Z,-7.23
2023-02-12T22:19:22.927Z,-6.87
2023-02-12T22:21:53.717Z,-6.93
2023-02-12T22:24:24.332Z,-6.99
2023-02-12T22:26:54.478Z,-7.03
2023-02-12T22:29:23.636Z,-7.23
2023-02-12T22:31:52.134Z,-7.13
2023-02-12T22:34:20.309Z,-6.89
2023-02-12T22:36:48.559Z,-6.85
2023-02-12T22:39:17.979Z,-6.70
2023-02-12T22:41:48.676Z,-6.67
2023-02-12T22:44:19.458Z,-6.68
2023-02-12T22:46:49.735Z,-6.68
2023-02-12T22:49:18.473Z,-6.84
2023-02-12T22:51:46.428Z,-6.81
2023-02-12T22:54:17.790Z,-6.88
2023-02-12T22:56:51.111Z,-6.94
2023-02-12T22:59:19.639Z,-6.81
2023-02-12T23:01:47.859Z,-6.97
2023-02-12T23:04:17.700Z,-6.82
2023-02-12T23:06:48.511Z,-6.78
2023-02-12T23:09:19.391Z,-6.79
2023-02-12T23:11:48.526Z,-6.93
2023-02-12T23:14:16.974Z,-6.87
2023-02-12T23:16:44.958Z,-6.95
2023-02-12T23:19:13.511Z,-7.14
2023-02-12T23:21:42.103Z,-7.47
2023-02-12T23:24:13.856Z,-7.21
2023-02-12T23:26:41.989Z,-7.25
2023-02-12T23:29:09.753Z,-7.28
2023-02-12T23:31:38.673Z,-7.35
2023-02-12T23:34:06.853Z,-7.57
2023-02-12T23:36:37.708Z,-7.52
2023-02-12T23:39:06.301Z,-7.78
2023-02-12T23:41:34.446Z,-8.36
2023-02-12T23:44:02.271Z,-7.83
2023-02-12T23:46:30.422Z,-8.12
2023-02-12T23:48:58.647Z,-7.56
2023-02-12T23:51:26.346Z,-7.33
2023-02-12T23:53:54.184Z,-7.37
2023-02-12T23:56:22.471Z,-7.45
2023-02-12T23:58:50.503Z,-7.57
